Time;durP1;ratioP1;P1;durP2;ratioP2;P2;SDS_P1;SDS_P2;PMS_P1;PMS_P2;Temp;Humidity;BMP_temperature;BMP_pressure;BME280_temperature;BME280_humidity;BME280_pressure;Samples;Min_cycle;Max_cycle;Signal;HPM_P1;HPM_P2
2023/05/08 00:02:18;;;;;;;5.80;4.90;;;;;;;6.10;100.00;99867.95;109471;1252;66220;-72
2023/05/08 00:04:45;;;;;;;4.70;4.30;;;;;;;6.10;100.00;99872.53;109466;1252;59410;-72
2023/05/08 00:07:11;;;;;;;5.20;4.70;;;;;;;6.10;100.00;99874.31;109454;1252;58992;-72
2023/05/08 00:09:38;;;;;;;4.80;4.20;;;;;;;6.08;100.00;99874.38;109417;1252;59027;-72
2023/05/08 00:12:04;;;;;;;5.50;5.00;;;;;;;6.06;100.00;99873.21;109183;1251;58962;-71
2023/05/08 00:14:31;;;;;;;6.50;5.90;;;;;;;6.05;100.00;99872.72;109504;1251;64927;-71
2023/05/08 00:16:57;;;;;;;5.80;5.30;;;;;;;6.05;100.00;99872.56;109503;1252;59032;-72
2023/05/08 00:19:23;;;;;;;5.90;5.20;;;;;;;6.04;100.00;99871.34;109472;1252;59123;-72
2023/05/08 00:21:51;;;;;;;6.80;5.00;;;;;;;6.04;100.00;99879.27;109462;1252;58982;-72
2023/05/08 00:24:17;;;;;;;5.60;5.00;;;;;;;6.04;100.00;99878.95;109488;1252;58965;-72
2023/05/08 00:26:44;;;;;;;5.50;5.00;;;;;;;6.02;100.00;99875.80;109438;1252;59477;-72
2023/05/08 00:29:11;;;;;;;5.70;5.20;;;;;;;6.01;100.00;99876.39;109515;1251;59249;-72
2023/05/08 00:31:37;;;;;;;5.50;5.00;;;;;;;6.01;100.00;99873.93;109345;1253;64043;-72
2023/05/08 00:34:04;;;;;;;6.00;5.50;;;;;;;6.00;100.00;99873.42;109464;1251;59276;-72
2023/05/08 00:36:31;;;;;;;5.30;4.80;;;;;;;6.00;100.00;99874.32;109475;1252;58979;-72
2023/05/08 00:38:57;;;;;;;5.50;5.00;;;;;;;5.99;100.00;99876.11;109457;1252;66078;-73
2023/05/08 00:41:24;;;;;;;5.90;5.40;;;;;;;5.98;100.00;99880.03;109452;1252;59006;-72
2023/05/08 00:43:50;;;;;;;5.30;4.80;;;;;;;5.98;100.00;99880.56;109193;1252;59035;-72
2023/05/08 00:46:17;;;;;;;5.20;4.80;;;;;;;5.97;100.00;99880.06;109508;1251;58863;-72
2023/05/08 00:48:44;;;;;;;7.40;5.40;;;;;;;5.97;100.00;99879.35;109486;1252;59027;-73
2023/05/08 00:51:12;;;;;;;5.60;5.10;;;;;;;5.98;100.00;99881.27;109465;1252;65034;-72
2023/05/08 00:53:41;;;;;;;7.30;6.00;;;;;;;5.97;100.00;99881.99;109414;1253;60217;-72
2023/05/08 00:56:14;;;;;;;5.30;4.80;;;;;;;5.97;100.00;99877.25;109457;1252;64004;-72
2023/05/08 00:58:41;;;;;;;8.00;5.30;;;;;;;5.96;100.00;99880.81;109487;1252;59033;-73
2023/05/08 01:01:08;;;;;;;6.70;4.90;;;;;;;5.96;100.00;99886.08;109475;1252;58867;-73
2023/05/08 01:03:35;;;;;;;5.90;5.30;;;;;;;5.96;100.00;99879.73;109513;1252;64805;-73
2023/05/08 01:06:02;;;;;;;5.20;4.70;;;;;;;5.96;100.00;99883.45;109519;1251;59105;-73
2023/05/08 01:08:30;;;;;;;4.90;4.40;;;;;;;5.94;100.00;99887.37;109439;1252;64222;-72
2023/05/08 01:11:03;;;;;;;5.70;5.20;;;;;;;5.92;100.00;99887.24;109492;1252;59040;-72
2023/05/08 01:13:48;;;;;;;5.40;4.90;;;;;;;5.91;100.00;99892.58;109431;1252;59079;-72
2023/05/08 01:16:44;;;;;;;6.10;4.90;;;;;;;5.89;100.00;99895.80;109475;1252;64871;-72
2023/05/08 01:19:38;;;;;;;5.20;4.70;;;;;;;5.87;100.00;99893.40;109480;1252;59071;-72
2023/05/08 01:22:49;;;;;;;5.20;4.70;;;;;;;5.87;100.00;99894.11;109475;1252;63995;-72
2023/05/08 01:25:28;;;;;;;6.20;5.50;;;;;;;5.88;100.00;99890.92;109002;1257;59417;-72
2023/05/08 01:28:17;;;;;;;5.60;4.90;;;;;;;5.88;100.00;99896.73;109031;1257;59143;-72
2023/05/08 01:31:05;;;;;;;6.60;5.90;;;;;;;5.87;100.00;99894.29;108803;1262;66026;-72
2023/05/08 01:33:47;;;;;;;5.80;5.30;;;;;;;5.86;100.00;99893.59;108805;1262;60187;-72
2023/05/08 01:36:35;;;;;;;6.10;5.30;;;;;;;5.87;100.00;99896.58;108803;1262;64078;-71
2023/05/08 01:39:30;;;;;;;6.50;5.90;;;;;;;5.88;100.00;99896.92;108781;1262;59079;-72
2023/05/08 01:42:07;;;;;;;7.20;6.50;;;;;;;5.87;100.00;99896.41;108796;1262;59421;-72
2023/05/08 01:44:56;;;;;;;7.10;6.40;;;;;;;5.86;100.00;99892.91;108805;1262;66030;-72
2023/05/08 01:47:27;;;;;;;8.30;7.50;;;;;;;5.84;100.00;99892.80;108782;1262;60162;-72
2023/05/08 01:50:13;;;;;;;7.50;6.80;;;;;;;5.84;100.00;99893.33;108791;1262;62845;-72
2023/05/08 01:52:52;;;;;;;6.60;5.80;;;;;;;5.84;100.00;99898.27;108654;1263;59091;-73
2023/05/08 01:55:32;;;;;;;6.90;6.30;;;;;;;5.83;100.00;99896.71;108792;1262;59044;-72
2023/05/08 01:58:03;;;;;;;7.90;7.10;;;;;;;5.82;100.00;99895.16;108841;1262;66099;-72
2023/05/08 02:00:32;;;;;;;7.30;6.70;;;;;;;5.82;100.00;99899.21;108797;1262;60174;-72
2023/05/08 02:02:59;;;;;;;7.10;6.10;;;;;;;5.82;100.00;99907.66;108918;1259;64129;-72
2023/05/08 02:05:27;;;;;;;6.60;6.00;;;;;;;5.82;100.00;99909.80;108922;1259;59194;-72
2023/05/08 02:07:54;;;;;;;7.30;6.60;;;;;;;5.81;100.00;99908.95;109199;1252;58984;-73
2023/05/08 02:10:23;;;;;;;7.40;6.70;;;;;;;5.81;100.00;99909.47;109487;1252;64865;-72
2023/05/08 02:12:52;;;;;;;7.30;6.60;;;;;;;5.81;100.00;99908.77;109514;1252;59923;-73
2023/05/08 02:15:20;;;;;;;7.30;6.70;;;;;;;5.80;100.00;99908.10;109476;1252;64072;-72
2023/05/08 02:17:48;;;;;;;7.70;6.50;;;;;;;5.79;100.00;99907.76;109507;1251;59018;-73
2023/05/08 02:20:15;;;;;;;7.20;6.50;;;;;;;5.78;100.00;99913.27;109470;1252;59001;-72
2023/05/08 02:22:43;;;;;;;8.50;6.50;;;;;;;5.77;100.00;99913.16;108702;1253;1002460;-73
2023/05/08 02:25:13;;;;;;;6.90;6.20;;;;;;;5.76;100.00;99910.17;109552;1252;59836;-73
2023/05/08 02:27:44;;;;;;;7.60;6.90;;;;;;;5.76;100.00;99913.16;109507;1251;64077;-73
2023/05/08 02:30:15;;;;;;;7.80;7.10;;;;;;;5.77;100.00;99915.10;109545;1252;58981;-72
2023/05/08 02:32:43;;;;;;;7.30;6.60;;;;;;;5.77;100.00;99913.16;109504;1255;58864;-73
2023/05/08 02:35:18;;;;;;;8.30;7.50;;;;;;;5.77;100.00;99913.15;109512;1252;64860;-73
2023/05/08 02:37:50;;;;;;;7.60;6.90;;;;;;;5.78;100.00;99915.23;109490;1253;59845;-72
2023/05/08 02:40:17;;;;;;;8.10;6.70;;;;;;;5.78;100.00;99913.98;109510;1253;64083;-73
2023/05/08 02:42:45;;;;;;;7.00;6.40;;;;;;;5.78;100.00;99910.27;109453;1255;58958;-71
2023/05/08 02:45:13;;;;;;;6.10;5.60;;;;;;;5.76;100.00;99911.25;109515;1251;59064;-72
2023/05/08 02:48:07;;;;;;;7.50;6.70;;;;;;;5.73;100.00;99918.38;109536;1252;66045;-72
2023/05/08 02:50:56;;;;;;;8.00;6.60;;;;;;;5.71;100.00;99921.24;109512;1251;60356;-71
2023/05/08 02:53:31;;;;;;;6.50;5.90;;;;;;;5.71;100.00;99919.15;109482;1251;62873;-72
2023/05/08 02:56:08;;;;;;;6.70;6.00;;;;;;;5.72;100.00;99922.28;109483;1251;59022;-72
2023/05/08 02:59:03;;;;;;;6.50;5.90;;;;;;;5.73;100.00;99922.06;109524;1251;59186;-73
2023/05/08 03:01:40;;;;;;;7.20;6.40;;;;;;;5.73;100.00;99922.61;109503;1252;66020;-73
2023/05/08 03:04:09;;;;;;;7.50;6.80;;;;;;;5.73;100.00;99919.96;109523;1252;60223;-73
2023/05/08 03:06:40;;;;;;;7.10;6.40;;;;;;;5.73;100.00;99918.90;109521;1252;64084;-73
2023/05/08 03:09:15;;;;;;;6.90;6.20;;;;;;;5.72;100.00;99915.75;109522;1252;59139;-72
2023/05/08 03:11:43;;;;;;;8.20;6.80;;;;;;;5.72;100.00;99921.05;109509;1251;59047;-73
2023/05/08 03:14:13;;;;;;;8.20;6.20;;;;;;;5.72;100.00;99923.87;109560;1252;64815;-74
2023/05/08 03:16:42;;;;;;;7.40;6.30;;;;;;;5.70;100.00;99927.45;109369;1252;60038;-72
2023/05/08 03:19:34;;;;;;;7.70;7.00;;;;;;;5.69;100.00;99927.34;109514;1252;64035;-72
2023/05/08 03:22:02;;;;;;;10.40;7.40;;;;;;;5.67;100.00;99930.36;109490;1252;59010;-72
2023/05/08 03:24:32;;;;;;;5.90;5.40;;;;;;;5.66;100.00;99931.83;109498;1253;58880;-73
2023/05/08 03:27:00;;;;;;;7.40;6.80;;;;;;;5.64;100.00;99931.70;109351;1258;64823;-73
2023/05/08 03:29:27;;;;;;;7.30;6.60;;;;;;;5.64;100.00;99933.65;109245;1252;60147;-72
2023/05/08 03:31:57;;;;;;;6.60;6.00;;;;;;;5.63;100.00;99938.26;109539;1252;62885;-72
2023/05/08 03:34:24;;;;;;;6.80;6.10;;;;;;;5.63;100.00;99937.38;109511;1252;58956;-72
2023/05/08 03:36:51;;;;;;;8.20;7.20;;;;;;;5.63;100.00;99940.39;109515;1252;58858;-73
2023/05/08 03:39:18;;;;;;;7.60;6.90;;;;;;;5.63;100.00;99936.32;109508;1253;65867;-73
2023/05/08 03:41:44;;;;;;;7.00;6.00;;;;;;;5.65;100.00;99933.46;109232;1252;60226;-72
2023/05/08 03:44:12;;;;;;;6.90;5.60;;;;;;;5.64;100.00;99940.70;109499;1251;63044;-73
2023/05/08 03:46:41;;;;;;;6.40;5.80;;;;;;;5.63;100.00;99934.38;109539;1251;59118;-72
2023/05/08 03:49:07;;;;;;;6.80;5.90;;;;;;;5.64;100.00;99933.48;109363;1252;59052;-73
2023/05/08 03:51:37;;;;;;;5.70;5.20;;;;;;;5.66;100.00;99935.54;109204;1253;64908;-72
2023/05/08 03:54:04;;;;;;;6.10;5.40;;;;;;;5.67;100.00;99934.44;109236;1252;60138;-73
2023/05/08 03:56:30;;;;;;;6.60;6.00;;;;;;;5.68;100.00;99930.86;109545;1252;63037;-73
2023/05/08 03:59:13;;;;;;;6.40;5.80;;;;;;;5.70;100.00;99932.92;109553;1253;58981;-73
2023/05/08 04:01:56;;;;;;;7.30;6.20;;;;;;;5.71;100.00;99936.75;109598;1251;59039;-73
2023/05/08 04:04:33;;;;;;;6.70;6.00;;;;;;;5.71;100.00;99934.13;109398;1252;66022;-72
2023/05/08 04:07:26;;;;;;;6.50;6.00;;;;;;;5.71;100.00;99936.25;109546;1251;60253;-73
2023/05/08 04:10:07;;;;;;;7.20;6.60;;;;;;;5.71;100.00;99937.64;109535;1251;64061;-72
2023/05/08 04:12:46;;;;;;;7.70;6.90;;;;;;;5.74;100.00;99942.50;109449;1253;59064;-73
2023/05/08 04:15:17;;;;;;;8.20;6.80;;;;;;;5.75;100.00;99946.34;109500;1253;59112;-73
2023/05/08 04:17:58;;;;;;;7.50;6.50;;;;;;;5.75;100.00;99954.46;109497;1252;66154;-72
2023/05/08 04:20:28;;;;;;;8.40;6.60;;;;;;;5.77;100.00;99956.52;109536;1253;61392;-73
2023/05/08 04:22:56;;;;;;;7.00;5.10;;;;;;;5.82;100.00;99960.94;109358;1252;64073;-72
2023/05/08 04:25:24;;;;;;;6.00;5.40;;;;;;;5.82;100.00;99962.36;109590;1252;59132;-73
2023/05/08 04:27:52;;;;;;;4.90;4.40;;;;;;;5.81;100.00;99966.08;109539;1252;59211;-72
2023/05/08 04:30:19;;;;;;;5.90;5.30;;;;;;;5.82;100.00;99971.34;109504;1252;64949;-72
2023/05/08 04:32:46;;;;;;;5.20;4.70;;;;;;;5.82;100.00;99972.21;109499;1251;60201;-72
2023/05/08 04:35:13;;;;;;;4.90;4.40;;;;;;;5.85;100.00;99973.89;109543;1252;64088;-73
2023/05/08 04:37:44;;;;;;;5.60;5.00;;;;;;;5.86;100.00;99969.11;109126;1256;59080;-73
2023/05/08 04:40:10;;;;;;;5.00;4.50;;;;;;;5.87;100.00;99974.70;109058;1256;59031;-74
2023/05/08 04:42:38;;;;;;;6.50;4.80;;;;;;;5.88;100.00;99979.94;109112;1256;66073;-72
2023/05/08 04:45:05;;;;;;;5.50;4.90;;;;;;;5.90;100.00;99989.09;109012;1256;60094;-72
2023/05/08 04:47:32;;;;;;;5.00;4.50;;;;;;;5.93;100.00;99991.48;109118;1256;64121;-72
2023/05/08 04:49:58;;;;;;;5.90;4.80;;;;;;;5.94;100.00;99997.96;109078;1256;59381;-73
2023/05/08 04:52:25;;;;;;;5.50;4.90;;;;;;;5.95;100.00;99999.89;109073;1256;59534;-75
2023/05/08 04:54:51;;;;;;;5.10;4.70;;;;;;;6.00;100.00;100006.98;109106;1256;59152;-75
2023/05/08 04:57:18;;;;;;;6.10;5.30;;;;;;;6.07;100.00;100007.61;108949;1261;59266;-75
2023/05/08 04:59:45;;;;;;;5.90;5.40;;;;;;;6.16;100.00;100012.95;109083;1256;64079;-77
2023/05/08 05:02:11;;;;;;;6.10;5.00;;;;;;;6.29;100.00;100007.44;109095;1256;59299;-77
2023/05/08 05:04:38;;;;;;;6.30;5.60;;;;;;;6.45;100.00;100009.72;109054;1256;59136;-81
2023/05/08 05:07:04;;;;;;;5.70;5.20;;;;;;;6.57;100.00;100008.95;109009;1255;64792;-76
2023/05/08 05:09:35;;;;;;;8.50;5.60;;;;;;;6.62;100.00;100020.44;109466;1252;60108;-72
2023/05/08 05:12:03;;;;;;;5.20;4.70;;;;;;;6.59;100.00;100021.24;109510;1252;64146;-71
2023/05/08 05:14:29;;;;;;;6.30;5.70;;;;;;;6.58;100.00;100015.64;109517;1252;59116;-72
2023/05/08 05:16:56;;;;;;;6.30;5.60;;;;;;;6.61;100.00;100016.23;109537;1252;58891;-72
2023/05/08 05:19:22;;;;;;;5.60;5.10;;;;;;;6.67;100.00;100019.23;109535;1253;64646;-72
2023/05/08 05:21:49;;;;;;;6.30;5.10;;;;;;;6.70;100.00;100022.09;109489;1252;60250;-72
2023/05/08 05:24:16;;;;;;;6.50;5.30;;;;;;;6.75;100.00;100025.64;109343;1253;59100;-71
2023/05/08 05:26:42;;;;;;;6.00;5.40;;;;;;;6.78;100.00;100038.07;109237;1252;59023;-73
2023/05/08 05:29:09;;;;;;;7.80;4.40;;;;;;;6.79;100.00;100037.16;109499;1252;59031;-73
2023/05/08 05:31:36;;;;;;;6.00;5.20;;;;;;;6.84;100.00;100039.67;109567;1252;59599;-73
2023/05/08 05:34:02;;;;;;;7.10;5.90;;;;;;;6.95;100.00;100035.55;109539;1253;61187;-73
2023/05/08 05:36:29;;;;;;;6.50;5.80;;;;;;;7.12;100.00;100031.77;109519;1252;62953;-73
2023/05/08 05:38:57;;;;;;;6.20;5.60;;;;;;;7.35;100.00;100032.15;109239;1257;58958;-73
2023/05/08 05:41:23;;;;;;;5.80;5.30;;;;;;;7.57;100.00;100030.80;109524;1252;58869;-73
2023/05/08 05:43:50;;;;;;;6.30;5.70;;;;;;;7.73;100.00;100028.59;109541;1253;64726;-72
2023/05/08 05:46:17;;;;;;;5.30;4.90;;;;;;;7.87;100.00;100031.04;109190;1252;59048;-72
2023/05/08 05:48:44;;;;;;;5.50;5.10;;;;;;;7.98;100.00;100034.89;109541;1253;64125;-73
2023/05/08 05:51:10;;;;;;;5.70;5.00;;;;;;;8.06;100.00;100038.45;109532;1251;58960;-72
2023/05/08 05:53:37;;;;;;;6.20;5.00;;;;;;;8.20;100.00;100037.15;109536;1253;58851;-72
2023/05/08 05:56:04;;;;;;;5.90;4.70;;;;;;;8.18;100.00;100044.16;109264;1253;59599;-72
2023/05/08 05:58:30;;;;;;;5.70;5.20;;;;;;;8.16;100.00;100046.89;109225;1253;60248;-72
2023/05/08 06:00:59;;;;;;;6.00;5.30;;;;;;;8.12;100.00;100047.94;109510;1253;59084;-72
2023/05/08 06:03:26;;;;;;;5.30;4.90;;;;;;;8.02;100.00;100060.70;109375;1254;59027;-72
2023/05/08 06:05:53;;;;;;;5.00;4.60;;;;;;;7.93;100.00;100058.77;109517;1253;59004;-72
2023/05/08 06:08:19;;;;;;;5.80;5.10;;;;;;;7.91;100.00;100062.39;109514;1252;66008;-72
2023/05/08 06:10:46;;;;;;;5.50;5.00;;;;;;;7.91;100.00;100070.52;109545;1253;60119;-72
2023/05/08 06:13:13;;;;;;;6.80;5.70;;;;;;;7.80;100.00;100073.44;109510;1254;64081;-72
2023/05/08 06:15:39;;;;;;;5.80;5.30;;;;;;;7.76;100.00;100071.66;109478;1253;58981;-72
2023/05/08 06:18:06;;;;;;;6.10;5.30;;;;;;;7.73;100.00;100069.45;109511;1252;59331;-72
2023/05/08 06:20:36;;;;;;;7.90;5.70;;;;;;;7.72;100.00;100070.23;109549;1252;67043;-71
2023/05/08 06:23:03;;;;;;;7.30;5.80;;;;;;;7.78;100.00;100069.47;109535;1253;58991;-72
2023/05/08 06:25:29;;;;;;;5.60;5.20;;;;;;;7.79;100.00;100076.11;109506;1252;64051;-72
2023/05/08 06:27:56;;;;;;;5.40;5.00;;;;;;;7.71;100.00;100076.05;109481;1252;59817;-72
2023/05/08 06:30:22;;;;;;;5.80;5.30;;;;;;;7.67;100.00;100076.05;109513;1253;59193;-73
2023/05/08 06:32:49;;;;;;;13.10;9.30;;;;;;;7.65;100.00;100076.48;109524;1252;59027;-72
2023/05/08 06:35:17;;;;;;;6.70;6.00;;;;;;;7.77;100.00;100079.73;109506;1254;60110;-71
2023/05/08 06:37:44;;;;;;;5.90;5.40;;;;;;;8.04;100.00;100079.95;109452;1253;72922;-72
2023/05/08 06:40:12;;;;;;;5.50;4.90;;;;;;;8.21;100.00;100079.27;109491;1253;58976;-73
2023/05/08 06:42:39;;;;;;;5.20;4.70;;;;;;;8.25;100.00;100084.40;109458;1253;59058;-72
2023/05/08 06:45:07;;;;;;;7.40;6.00;;;;;;;8.26;100.00;100087.23;109534;1253;66045;-72
2023/05/08 06:47:34;;;;;;;4.70;4.20;;;;;;;8.14;100.00;100089.11;109507;1252;60187;-72
2023/05/08 06:50:00;;;;;;;5.00;4.50;;;;;;;8.10;100.00;100089.80;109460;1252;65294;-72
2023/05/08 06:52:27;;;;;;;5.80;4.50;;;;;;;8.23;100.00;100088.03;109490;1252;58953;-72
2023/05/08 06:54:53;;;;;;;4.40;4.00;;;;;;;8.28;100.00;100089.27;109127;1252;59067;-73
2023/05/08 06:57:20;;;;;;;5.20;4.60;;;;;;;8.27;100.00;100092.33;109540;1253;59105;-72
2023/05/08 06:59:46;;;;;;;7.30;4.50;;;;;;;8.28;100.00;100094.40;109488;1253;59053;-73
2023/05/08 07:02:14;;;;;;;4.40;4.00;;;;;;;8.25;100.00;100095.94;109477;1253;58989;-73
2023/05/08 07:04:42;;;;;;;4.30;3.90;;;;;;;8.29;100.00;100099.67;109478;1253;59211;-73
2023/05/08 07:07:10;;;;;;;4.50;3.80;;;;;;;8.30;100.00;100098.71;109524;1253;59024;-73
2023/05/08 07:09:36;;;;;;;4.60;4.00;;;;;;;8.31;100.00;100098.51;109499;1253;66063;-73
2023/05/08 07:12:03;;;;;;;5.40;3.80;;;;;;;8.36;100.00;100102.93;109475;1253;59047;-73
2023/05/08 07:14:30;;;;;;;5.50;4.20;;;;;;;8.41;100.00;100101.16;109447;1253;64032;-73
2023/05/08 07:16:57;;;;;;;4.70;4.00;;;;;;;8.53;100.00;100103.49;109466;1252;58933;-73
2023/05/08 07:19:23;;;;;;;4.30;3.90;;;;;;;8.60;100.00;100103.77;109519;1251;59004;-73
2023/05/08 07:21:50;;;;;;;5.10;3.80;;;;;;;8.61;100.00;100107.08;109490;1252;59597;-73
2023/05/08 07:24:16;;;;;;;4.00;3.60;;;;;;;8.60;100.00;100115.47;109496;1253;58947;-73
2023/05/08 07:26:43;;;;;;;3.80;3.40;;;;;;;8.70;100.00;100110.98;109472;1253;59037;-73
2023/05/08 07:29:10;;;;;;;4.00;3.60;;;;;;;8.91;100.00;100115.06;109513;1253;58941;-73
2023/05/08 07:31:39;;;;;;;4.10;3.70;;;;;;;9.05;100.00;100120.15;109183;1252;58954;-73
2023/05/08 07:34:06;;;;;;;7.30;3.70;;;;;;;9.08;100.00;100124.79;109493;1253;64847;-73
2023/05/08 07:36:32;;;;;;;4.70;3.80;;;;;;;9.05;100.00;100125.27;109501;1253;60405;-73
2023/05/08 07:38:59;;;;;;;4.20;3.30;;;;;;;9.12;100.00;100126.77;109473;1255;64048;-73
2023/05/08 07:41:25;;;;;;;4.20;3.30;;;;;;;9.25;100.00;100122.08;109468;1252;59071;-73
2023/05/08 07:43:52;;;;;;;5.00;4.40;;;;;;;9.50;100.00;100125.26;109497;1253;59032;-73
2023/05/08 07:46:19;;;;;;;4.10;3.50;;;;;;;9.73;100.00;100127.43;109543;1253;65746;-73
2023/05/08 07:48:45;;;;;;;3.30;3.00;;;;;;;9.87;100.00;100131.92;109473;1253;60086;-73
2023/05/08 07:51:12;;;;;;;3.80;3.40;;;;;;;9.95;100.00;100131.77;109489;1254;64029;-73
2023/05/08 07:53:39;;;;;;;4.10;3.30;;;;;;;9.99;100.00;100125.35;109323;1252;59096;-73
2023/05/08 07:56:06;;;;;;;2.80;2.60;;;;;;;10.09;100.00;100126.83;109505;1252;59047;-73
2023/05/08 07:58:32;;;;;;;5.30;4.60;;;;;;;10.32;100.00;100120.64;109235;1253;64789;-73
2023/05/08 08:00:59;;;;;;;6.80;4.50;;;;;;;10.53;100.00;100119.98;109494;1254;58944;-73
2023/05/08 08:03:25;;;;;;;5.80;3.90;;;;;;;10.66;100.00;100123.64;109248;1254;64088;-73
2023/05/08 08:05:52;;;;;;;5.10;3.70;;;;;;;10.71;100.00;100119.96;109501;1253;58904;-74
2023/05/08 08:08:19;;;;;;;9.20;4.20;;;;;;;10.73;100.00;100119.37;109458;1252;59727;-73
2023/05/08 08:10:45;;;;;;;8.30;3.70;;;;;;;10.85;100.00;100122.48;109473;1254;66350;-73
2023/05/08 08:13:12;;;;;;;4.80;3.40;;;;;;;10.89;100.00;100125.34;109447;1254;59354;-73
2023/05/08 08:15:38;;;;;;;4.00;3.60;;;;;;;10.82;100.00;100118.03;109149;1253;64070;-73
2023/05/08 08:18:05;;;;;;;4.50;3.30;;;;;;;10.80;100.00;100121.70;109444;1254;59036;-73
2023/05/08 08:20:31;;;;;;;4.40;3.10;;;;;;;10.81;100.00;100126.61;109488;1252;58877;-73
2023/05/08 08:22:58;;;;;;;4.10;3.70;;;;;;;10.84;100.00;100126.12;109494;1254;59187;-73
2023/05/08 08:25:24;;;;;;;3.60;3.30;;;;;;;10.90;100.00;100126.84;109496;1254;60106;-73
2023/05/08 08:27:51;;;;;;;5.30;4.10;;;;;;;10.89;100.00;100127.80;109462;1253;62820;-73
2023/05/08 08:30:17;;;;;;;4.60;4.00;;;;;;;10.87;100.00;100125.05;109251;1254;59007;-73
2023/05/08 08:32:44;;;;;;;4.10;3.20;;;;;;;10.89;100.00;100129.41;109488;1252;58975;-73
2023/05/08 08:35:11;;;;;;;3.30;3.00;;;;;;;10.95;100.00;100131.60;109497;1253;66079;-73
2023/05/08 08:37:37;;;;;;;4.60;3.50;;;;;;;11.01;100.00;100131.29;109319;1253;59039;-73
2023/05/08 08:40:05;;;;;;;3.70;3.40;;;;;;;10.95;100.00;100139.23;109474;1254;59008;-72
2023/05/08 08:42:31;;;;;;;3.80;3.00;;;;;;;10.82;100.00;100134.00;109149;1252;58983;-73
2023/05/08 08:44:59;;;;;;;4.80;3.20;;;;;;;11.00;100.00;100134.70;109492;1253;59130;-73
2023/05/08 08:47:35;;;;;;;7.70;3.80;;;;;;;11.18;100.00;100130.05;109495;1252;66001;-72
2023/05/08 08:50:03;;;;;;;11.00;4.20;;;;;;;11.39;100.00;100130.05;109454;1253;59871;-72
2023/05/08 08:52:38;;;;;;;10.40;5.20;;;;;;;11.59;100.00;100131.48;109482;1252;62833;-72
2023/05/08 08:55:07;;;;;;;10.20;4.60;;;;;;;11.85;100.00;100126.25;109457;1253;58933;-73
2023/05/08 08:57:38;;;;;;;5.60;3.70;;;;;;;11.98;100.00;100127.27;109476;1254;59064;-73
2023/05/08 09:00:08;;;;;;;3.70;3.40;;;;;;;12.04;100.00;100133.56;109381;1255;65996;-73
2023/05/08 09:02:35;;;;;;;5.00;3.70;;;;;;;11.98;100.00;100131.74;109217;1254;60044;-73
2023/05/08 09:05:02;;;;;;;10.60;5.90;;;;;;;11.97;100.00;100126.80;109129;1252;64394;-73
2023/05/08 09:07:29;;;;;;;8.10;5.20;;;;;;;12.04;100.00;100126.45;109338;1251;59228;-73
2023/05/08 09:09:55;;;;;;;4.50;3.30;;;;;;;12.09;100.00;100134.35;109430;1254;59039;-72
2023/05/08 09:12:22;;;;;;;4.80;3.70;;;;;;;12.11;100.00;100140.48;109487;1252;66033;-72
2023/05/08 09:14:49;;;;;;;8.20;5.80;;;;;;;12.11;100.00;100136.39;109467;1252;59025;-73
2023/05/08 09:17:16;;;;;;;3.60;3.20;;;;;;;12.36;100.00;100133.77;109423;1254;64041;-72
2023/05/08 09:19:43;;;;;;;4.20;3.40;;;;;;;12.79;100.00;100128.30;109464;1251;58954;-73
2023/05/08 09:22:10;;;;;;;3.30;3.00;;;;;;;12.90;100.00;100132.09;109507;1252;58938;-72
2023/05/08 09:24:52;;;;;;;4.80;3.30;;;;;;;12.72;100.00;100135.77;109515;1252;66031;-72
2023/05/08 09:27:24;;;;;;;4.00;2.70;;;;;;;12.51;100.00;100138.24;109511;1254;60103;-72
2023/05/08 09:30:07;;;;;;;4.30;2.80;;;;;;;12.37;99.72;100139.58;109468;1254;64070;-73
2023/05/08 09:32:37;;;;;;;7.90;3.40;;;;;;;12.32;96.83;100139.50;109447;1252;59183;-72
2023/05/08 09:35:05;;;;;;;3.60;2.90;;;;;;;12.18;90.97;100142.25;109480;1253;58994;-72
2023/05/08 09:37:32;;;;;;;4.30;3.20;;;;;;;11.93;91.65;100143.94;109418;1253;64825;-79
2023/05/08 09:40:20;;;;;;;5.00;3.20;;;;;;;11.86;90.67;100144.85;109323;1253;59482;-77
2023/05/08 09:42:49;;;;;;;4.70;3.50;;;;;;;11.89;89.63;100147.94;109337;1253;64100;-76
2023/05/08 09:45:26;;;;;;;4.60;3.70;;;;;;;11.96;87.68;100142.38;109466;1252;59376;-71
2023/05/08 09:47:53;;;;;;;3.80;3.50;;;;;;;12.11;86.36;100139.44;109549;1253;58869;-71
2023/05/08 09:50:20;;;;;;;3.90;3.50;;;;;;;12.18;84.32;100141.00;109548;1252;66165;-71
2023/05/08 09:52:48;;;;;;;3.30;3.00;;;;;;;12.34;83.70;100133.34;109506;1254;58995;-71
2023/05/08 09:55:14;;;;;;;5.90;3.40;;;;;;;12.53;82.80;100133.52;109486;1254;63717;-72
2023/05/08 09:57:51;;;;;;;5.30;3.00;;;;;;;12.73;82.44;100135.04;109540;1253;59198;-72
2023/05/08 10:00:18;;;;;;;4.40;3.30;;;;;;;12.78;81.00;100133.34;109515;1252;59013;-71
2023/05/08 10:02:59;;;;;;;4.60;4.10;;;;;;;12.76;80.37;100127.54;109269;1254;66013;-71
2023/05/08 10:05:30;;;;;;;3.70;3.30;;;;;;;12.66;80.05;100127.24;109508;1253;59508;-71
2023/05/08 10:07:58;;;;;;;5.30;3.10;;;;;;;12.68;79.61;100125.17;109505;1252;62576;-71
2023/05/08 10:10:26;;;;;;;4.20;2.80;;;;;;;12.69;78.12;100121.52;109493;1253;58952;-71
2023/05/08 10:12:54;;;;;;;4.10;3.10;;;;;;;12.87;79.37;100115.89;109526;1254;59017;-71
2023/05/08 10:15:23;;;;;;;4.30;2.90;;;;;;;13.19;77.93;100115.77;109553;1253;64854;-71
2023/05/08 10:18:01;;;;;;;4.40;2.70;;;;;;;13.43;74.16;100114.86;109541;1252;58964;-71
2023/05/08 10:20:30;;;;;;;3.20;2.70;;;;;;;13.50;71.52;100120.18;109510;1252;62874;-71
2023/05/08 10:22:57;;;;;;;2.80;2.60;;;;;;;13.37;69.62;100124.38;109416;1254;59001;-71
2023/05/08 10:25:25;;;;;;;3.20;2.80;;;;;;;13.19;68.76;100123.59;109517;1252;58994;-71
2023/05/08 10:28:04;;;;;;;3.30;2.90;;;;;;;12.97;68.39;100122.92;109248;1254;66080;-71
2023/05/08 10:30:33;;;;;;;3.50;2.80;;;;;;;12.84;68.55;100119.80;109538;1254;60106;-71
2023/05/08 10:33:02;;;;;;;3.70;3.10;;;;;;;12.87;65.00;100121.59;109170;1256;64070;-72
2023/05/08 10:35:30;;;;;;;5.80;4.10;;;;;;;12.99;65.37;100120.34;109180;1257;59027;-71
2023/05/08 10:37:57;;;;;;;8.90;6.20;;;;;;;13.09;64.86;100119.36;109194;1256;59128;-71
2023/05/08 10:40:24;;;;;;;12.00;6.60;;;;;;;13.16;64.72;100116.85;109202;1256;66674;-71
2023/05/08 10:42:51;;;;;;;5.20;3.90;;;;;;;13.36;64.58;100109.63;109202;1255;59337;-72
2023/05/08 10:45:17;;;;;;;3.00;2.80;;;;;;;13.44;63.53;100114.80;109180;1256;64043;-71
2023/05/08 10:48:13;;;;;;;3.10;2.80;;;;;;;13.31;62.73;100111.34;109187;1255;59029;-72
2023/05/08 10:51:17;;;;;;;3.90;2.90;;;;;;;13.10;62.28;100107.89;108701;1263;59123;-71
2023/05/08 10:53:58;;;;;;;3.40;3.10;;;;;;;13.13;61.98;100114.70;108714;1263;64863;-72
2023/05/08 10:56:27;;;;;;;5.40;3.00;;;;;;;13.17;62.73;100114.79;108728;1263;59098;-71
2023/05/08 10:58:56;;;;;;;3.40;3.00;;;;;;;13.16;62.13;100115.39;108715;1263;63158;-71
2023/05/08 11:01:23;;;;;;;3.80;3.20;;;;;;;13.06;62.39;100111.55;108701;1263;59045;-71
2023/05/08 11:03:49;;;;;;;3.10;2.80;;;;;;;13.17;63.02;100116.25;108798;1260;58971;-71
2023/05/08 11:06:36;;;;;;;3.50;3.10;;;;;;;13.25;62.26;100115.92;108926;1259;66057;-72
2023/05/08 11:09:03;;;;;;;4.20;3.80;;;;;;;13.31;62.19;100110.96;108941;1260;59130;-71
2023/05/08 11:11:34;;;;;;;5.80;3.40;;;;;;;13.39;62.39;100109.22;108930;1259;64050;-71
2023/05/08 11:14:06;;;;;;;10.00;4.50;;;;;;;13.52;62.25;100110.08;108897;1259;59049;-71
2023/05/08 11:16:52;;;;;;;6.40;4.20;;;;;;;13.63;62.55;100109.40;108934;1260;59033;-72
2023/05/08 11:19:20;;;;;;;5.60;4.00;;;;;;;13.71;62.13;100113.35;108914;1260;65897;-72
2023/05/08 11:22:12;;;;;;;5.00;4.50;;;;;;;13.76;62.66;100117.50;108897;1259;60260;-71
2023/05/08 11:24:52;;;;;;;3.90;3.10;;;;;;;13.74;61.53;100122.42;108944;1260;62810;-71
2023/05/08 11:27:47;;;;;;;5.20;4.40;;;;;;;13.59;61.58;100121.71;108970;1254;175007;-71
2023/05/08 11:30:33;;;;;;;4.30;3.60;;;;;;;13.59;61.74;100113.17;109501;1253;58898;-71
2023/05/08 11:33:02;;;;;;;3.90;3.50;;;;;;;13.64;61.81;100110.59;109539;1252;64850;-71
2023/05/08 11:35:58;;;;;;;4.10;3.70;;;;;;;13.71;62.30;100107.80;109529;1253;60183;-71